(°C)
16°
15°
15°
15°
15°
15°
15°
(°C)
17°
16°
16°
16°
16°
16°
16°
WSW
WSW
SSW
SSW
SSW
SW
SW
(km/h)
2-5
1-5
1-4
1-5
1-6
2-6
2-6
(mm)
0
0
0
0
0
0
0
(%)
5
5
4
4
3
2
2

Sonnenhöhe

/ -35.9°
sun-icon
UV 9
05:42
19:48
Abnehmender Halbmond (315°)
03:37
16:32

METAR für San Diego (KSAN)

Zeit Bedingungen Temperatur/
Taupunkt
Wind Sichtweite Wetter Wolken Druck Änderung Roh
MVFR 16.1°C / 13.3°C 260º 4kt >10km - Broken Clouds 1200ft 1014 - KSAN 260651Z 26004KT 10SM BKN012 16/13 A2995 RMK AO2 SLP140 T01610133
MVFR 15.6°C / 13.3°C 300º 3kt >10km - Broken Clouds 1200ft 1013 - KSAN 260551Z 30003KT 10SM BKN012 16/13 A2994 RMK AO2 SLP139 T01560133 10189 20156 51012
MVFR 15.6°C / 13.3°C 290º 3kt >10km - Broken Clouds 1200ft - KSAN 260525Z 29003KT 10SM BKN012 16/13 A2994 RMK AO2 T01560133
VFR 15.6°C / 13.3°C variable 0kt >10km - Scattered Clouds 1500ft 1013 - KSAN 260451Z 00000KT 10SM SCT015 16/13 A2994 RMK AO2 SLP138 T01560133
VFR 16.1°C / 13.3°C 300º 4kt >10km - Scattered Clouds 1800ft 1013 - KSAN 260351Z 30004KT 10SM SCT018 16/13 A2992 RMK AO2 SLP132 T01610133
VFR 16.7°C / 12.8°C 290º 5kt >10km - Few Clouds 1800ft
Few Clouds 25000ft
1012 - KSAN 260251Z 29005KT 9SM FEW018 FEW250 17/13 A2991 RMK AO2 SLP128 T01670128 53008
VFR 17.2°C / 12.8°C 270º 7kt >10km - Few Clouds 1800ft 1012 - KSAN 260151Z 27007KT 10SM FEW018 17/13 A2989 RMK AO2 SLP122 T01720128
VFR 18.3°C / 13.3°C 280º 5kt >10km - Few Clouds 1800ft 1011 - KSAN 260051Z 28005KT 10SM FEW018 18/13 A2988 RMK AO2 SLP118 T01830133
VFR 18.9°C / 12.8°C 220º 5kt >10km - Few Clouds 1800ft 1011 - KSAN 252351Z 22005KT 10SM FEW018 19/13 A2988 RMK AO2 SLP119 T01890128 10189 20161 58015
VFR 18.9°C / 12.8°C 230º 7kt >10km - Few Clouds 1800ft 1012 - KSAN 252251Z 23007KT 10SM FEW018 19/13 A2990 RMK AO2 SLP124 T01890128
VFR 18.3°C / 12.8°C 200º 7kt >10km - Scattered Clouds 1800ft 1013 - KSAN 252151Z 20007KT 10SM SCT018 18/13 A2992 RMK AO2 SLP131 T01830128
VFR 17.8°C / 12.8°C 220º 5kt >10km - Scattered Clouds 1800ft - KSAN 252140Z 22005KT 10SM SCT018 18/13 A2992 RMK AO2 T01780128
MVFR 18.3°C / 12.8°C 230º 6kt Gust 18kt >10km - Broken Clouds 1700ft 1013 - KSAN 252051Z 23006G18KT 10SM BKN017 18/13 A2993 RMK AO2 SLP134 T01830128 58004
MVFR 17.2°C / 12.8°C variable 6kt >10km - Overcast 1600ft - KSAN 252007Z VRB06KT 10SM OVC016 17/13 A2994 RMK AO2 T01720128
MVFR 17.2°C / 12.8°C variable 5kt >10km - Overcast 1600ft 1013 - KSAN 251951Z VRB05KT 10SM OVC016 17/13 A2994 RMK AO2 SLP136 T01720128
MVFR 16.7°C / 13.3°C 210º 7kt >10km - Overcast 1200ft 1013 - KSAN 251851Z 21007KT 9SM OVC012 17/13 A2994 RMK AO2 SLP139 T01670133
MVFR 16.1°C / 13.3°C 200º 6kt Gust 18kt >10km - Overcast 1000ft 1013 - KSAN 251751Z 20006G18KT 8SM OVC010 16/13 A2994 RMK AO2 SLP137 T01610133 10161 20128 51015
MVFR 16.1°C / 13.3°C variable 6kt >10km - Overcast 1000ft 1013 - KSAN 251651Z VRB06KT 7SM OVC010 16/13 A2994 RMK AO2 SLP136 T01610133
MVFR 16.1°C / 13.3°C 210º 6kt >10km - Overcast 1000ft 1013 - KSAN 251551Z 21006KT 7SM OVC010 16/13 A2992 RMK AO2 SLP130 T01610133
MVFR 15.6°C / 13.3°C variable 4kt >10km - Broken Clouds 1000ft - KSAN 251505Z VRB04KT 7SM BKN010 16/13 A2990 RMK AO2 T01560133
IFR 15.6°C / 13.3°C variable 0kt >10km - Broken Clouds 900ft 1012 - KSAN 251451Z 00000KT 7SM BKN009 16/13 A2989 RMK AO2 SLP122 T01560133 53012
VFR 15.6°C / 13.3°C variable 4kt >10km - Few Clouds 900ft - KSAN 251435Z VRB04KT 7SM FEW009 16/13 A2989 RMK AO2 T01560133
MVFR 13.9°C / 13.3°C variable 0kt 8000m Mist Vertical Visibility of 0ft. 1011 - KSAN 251351Z 00000KT 5SM BR FEW012 14/13 A2988 RMK AO2 SLP117 T01390133
VFR 13.3°C / 11.7°C 350º 3kt 9700m Mist Vertical Visibility of 0ft. 1011 - KSAN 251251Z 35003KT 6SM BR FEW012 13/12 A2986 RMK AO2 SLP112 T01330117

MVFR

16.1°C / 13.3°C

[Mehr]
Wind 260º 4kt
Sichtweite >10km
Wetter -
Wolken Broken Clouds 1200ft
Druck 1014
Änderung -
Roh KSAN 260651Z 26004KT 10SM BKN012 16/13 A2995 RMK AO2 SLP140 T01610133

MVFR

15.6°C / 13.3°C

[Mehr]
Wind 300º 3kt
Sichtweite >10km
Wetter -
Wolken Broken Clouds 1200ft
Druck 1013
Änderung -
Roh KSAN 260551Z 30003KT 10SM BKN012 16/13 A2994 RMK AO2 SLP139 T01560133 10189 20156 51012

MVFR

15.6°C / 13.3°C

[Mehr]
Wind 290º 3kt
Sichtweite >10km
Wetter -
Wolken Broken Clouds 1200ft
Druck
Änderung -
Roh KSAN 260525Z 29003KT 10SM BKN012 16/13 A2994 RMK AO2 T01560133

VFR

15.6°C / 13.3°C

[Mehr]
Wind variable 0kt
Sichtweite >10km
Wetter -
Wolken Scattered Clouds 1500ft
Druck 1013
Änderung -
Roh KSAN 260451Z 00000KT 10SM SCT015 16/13 A2994 RMK AO2 SLP138 T01560133

VFR

16.1°C / 13.3°C

[Mehr]
Wind 300º 4kt
Sichtweite >10km
Wetter -
Wolken Scattered Clouds 1800ft
Druck 1013
Änderung -
Roh KSAN 260351Z 30004KT 10SM SCT018 16/13 A2992 RMK AO2 SLP132 T01610133

VFR

16.7°C / 12.8°C

[Mehr]
Wind 290º 5kt
Sichtweite >10km
Wetter -
Wolken Few Clouds 1800ft
Few Clouds 25000ft
Druck 1012
Änderung -
Roh KSAN 260251Z 29005KT 9SM FEW018 FEW250 17/13 A2991 RMK AO2 SLP128 T01670128 53008

VFR

17.2°C / 12.8°C

[Mehr]
Wind 270º 7kt
Sichtweite >10km
Wetter -
Wolken Few Clouds 1800ft
Druck 1012
Änderung -
Roh KSAN 260151Z 27007KT 10SM FEW018 17/13 A2989 RMK AO2 SLP122 T01720128

VFR

18.3°C / 13.3°C

[Mehr]
Wind 280º 5kt
Sichtweite >10km
Wetter -
Wolken Few Clouds 1800ft
Druck 1011
Änderung -
Roh KSAN 260051Z 28005KT 10SM FEW018 18/13 A2988 RMK AO2 SLP118 T01830133

VFR

18.9°C / 12.8°C

[Mehr]
Wind 220º 5kt
Sichtweite >10km
Wetter -
Wolken Few Clouds 1800ft
Druck 1011
Änderung -
Roh KSAN 252351Z 22005KT 10SM FEW018 19/13 A2988 RMK AO2 SLP119 T01890128 10189 20161 58015

VFR

18.9°C / 12.8°C

[Mehr]
Wind 230º 7kt
Sichtweite >10km
Wetter -
Wolken Few Clouds 1800ft
Druck 1012
Änderung -
Roh KSAN 252251Z 23007KT 10SM FEW018 19/13 A2990 RMK AO2 SLP124 T01890128

VFR

18.3°C / 12.8°C

[Mehr]
Wind 200º 7kt
Sichtweite >10km
Wetter -
Wolken Scattered Clouds 1800ft
Druck 1013
Änderung -
Roh KSAN 252151Z 20007KT 10SM SCT018 18/13 A2992 RMK AO2 SLP131 T01830128

VFR

17.8°C / 12.8°C

[Mehr]
Wind 220º 5kt
Sichtweite >10km
Wetter -
Wolken Scattered Clouds 1800ft
Druck
Änderung -
Roh KSAN 252140Z 22005KT 10SM SCT018 18/13 A2992 RMK AO2 T01780128

MVFR

18.3°C / 12.8°C

[Mehr]
Wind 230º 6kt Gust 18kt
Sichtweite >10km
Wetter -
Wolken Broken Clouds 1700ft
Druck 1013
Änderung -
Roh KSAN 252051Z 23006G18KT 10SM BKN017 18/13 A2993 RMK AO2 SLP134 T01830128 58004

MVFR

17.2°C / 12.8°C

[Mehr]
Wind variable 6kt
Sichtweite >10km
Wetter -
Wolken Overcast 1600ft
Druck
Änderung -
Roh KSAN 252007Z VRB06KT 10SM OVC016 17/13 A2994 RMK AO2 T01720128

MVFR

17.2°C / 12.8°C

[Mehr]
Wind variable 5kt
Sichtweite >10km
Wetter -
Wolken Overcast 1600ft
Druck 1013
Änderung -
Roh KSAN 251951Z VRB05KT 10SM OVC016 17/13 A2994 RMK AO2 SLP136 T01720128

MVFR

16.7°C / 13.3°C

[Mehr]
Wind 210º 7kt
Sichtweite >10km
Wetter -
Wolken Overcast 1200ft
Druck 1013
Änderung -
Roh KSAN 251851Z 21007KT 9SM OVC012 17/13 A2994 RMK AO2 SLP139 T01670133

MVFR

16.1°C / 13.3°C

[Mehr]
Wind 200º 6kt Gust 18kt
Sichtweite >10km
Wetter -
Wolken Overcast 1000ft
Druck 1013
Änderung -
Roh KSAN 251751Z 20006G18KT 8SM OVC010 16/13 A2994 RMK AO2 SLP137 T01610133 10161 20128 51015

MVFR

16.1°C / 13.3°C

[Mehr]
Wind variable 6kt
Sichtweite >10km
Wetter -
Wolken Overcast 1000ft
Druck 1013
Änderung -
Roh KSAN 251651Z VRB06KT 7SM OVC010 16/13 A2994 RMK AO2 SLP136 T01610133

MVFR

16.1°C / 13.3°C

[Mehr]
Wind 210º 6kt
Sichtweite >10km
Wetter -
Wolken Overcast 1000ft
Druck 1013
Änderung -
Roh KSAN 251551Z 21006KT 7SM OVC010 16/13 A2992 RMK AO2 SLP130 T01610133

MVFR

15.6°C / 13.3°C

[Mehr]
Wind variable 4kt
Sichtweite >10km
Wetter -
Wolken Broken Clouds 1000ft
Druck
Änderung -
Roh KSAN 251505Z VRB04KT 7SM BKN010 16/13 A2990 RMK AO2 T01560133

IFR

15.6°C / 13.3°C

[Mehr]
Wind variable 0kt
Sichtweite >10km
Wetter -
Wolken Broken Clouds 900ft
Druck 1012
Änderung -
Roh KSAN 251451Z 00000KT 7SM BKN009 16/13 A2989 RMK AO2 SLP122 T01560133 53012

VFR

15.6°C / 13.3°C

[Mehr]
Wind variable 4kt
Sichtweite >10km
Wetter -
Wolken Few Clouds 900ft
Druck
Änderung -
Roh KSAN 251435Z VRB04KT 7SM FEW009 16/13 A2989 RMK AO2 T01560133

MVFR

13.9°C / 13.3°C

[Mehr]
Wind variable 0kt
Sichtweite 8000m
Wetter Mist
Wolken Vertical Visibility of 0ft.
Druck 1011
Änderung -
Roh KSAN 251351Z 00000KT 5SM BR FEW012 14/13 A2988 RMK AO2 SLP117 T01390133

VFR

13.3°C / 11.7°C

[Mehr]
Wind 350º 3kt
Sichtweite 9700m
Wetter Mist
Wolken Vertical Visibility of 0ft.
Druck 1011
Änderung -
Roh KSAN 251251Z 35003KT 6SM BR FEW012 13/12 A2986 RMK AO2 SLP112 T01330117

TAF für San Diego (KSAN)

From till


From till Wind variable 4kt. Visibility 10km or more. Overcast 1100ft.
From till Wind 220º 9kt. Visibility 10km or more. Scattered Clouds 1500ft.
From till Wind 250º 6kt. Visibility 10km or more. Overcast 1400ft.

Roh: KSAN 260520Z 2606/2712 VRB04KT P6SM OVC011 FM262000 22009KT P6SM SCT015 FM270200 25006KT P6SM OVC014

Radar- und Niederschlags-Nowcast für San Diego

Nieselregen
Leicht
Moderat
Stark
Sehr schwer
Hagel

Die Ortsmarkierung zeigt auf San Diego. Diese Animation zeigt das Niederschlagsradar der letzten Stunde, sowie eine 1h Vorhersage. Nieselregen und leichter Schneefall können für das Radar unsichtbar sein. Die Niederschlagsintensität ist farbcodiert von Hellblau bis Orange.

Aktuelle Satellitenbilder für San Diego, Vereinigte Staaten

Die Standortmarkierung ist platziert auf San Diego. [Mehr]

Das Echtzeit-Satellitenbild kombiniert sichtbares Licht während des Tages mit Infrarotstrahlung während der Nacht. Nachts ist das Bild nicht dunkel, da Infrarotstrahlung Temperaturunterschiede erkennen kann. Leider sind niedrige Wolken und Nebel nur schwer von den Bodentemperaturen zu unterscheiden und können daher nachts fast unsichtbar sein. Meteosat-Satellitenbilder für Europa werden alle 5 Minuten in Echtzeit aktualisiert. Die Bilder GOES-16 / GOES-17 (Nord- und Südamerika) und Himawari (Asien) werden alle 10 Minuten aktualisiert.

Zum Anfang